Time;durP1;ratioP1;P1;durP2;ratioP2;P2;SDS_P1;SDS_P2;PMS_P1;PMS_P2;Temp;Humidity;BMP_temperature;BMP_pressure;BME280_temperature;BME280_humidity;BME280_pressure;Samples;Min_cycle;Max_cycle;Signal;HPM_P1;HPM_P2
2022/03/19 00:00:53;;;;;;;14.23;4.43;;;4.60;99.90;;;;;;5104375;27;20060;-78
2022/03/19 00:03:20;;;;;;;21.52;4.15;;;4.60;99.90;;;;;;5088512;28;20687;-80
2022/03/19 00:05:46;;;;;;;18.77;3.95;;;4.60;99.90;;;;;;5113640;27;20047;-78
2022/03/19 00:08:16;;;;;;;19.90;3.58;;;4.50;99.90;;;;;;5083086;28;20066;-81
2022/03/19 00:10:42;;;;;;;25.00;3.80;;;4.50;99.90;;;;;;5093600;27;20043;-80
2022/03/19 00:13:09;;;;;;;25.05;4.03;;;4.40;99.90;;;;;;5109353;27;20059;-78
2022/03/19 00:15:34;;;;;;;17.15;3.97;;;4.40;99.90;;;;;;5085277;28;20412;-78
2022/03/19 00:18:00;;;;;;;21.67;3.78;;;4.40;99.90;;;;;;5104934;27;20040;-79
2022/03/19 00:20:26;;;;;;;19.65;3.65;;;4.40;99.90;;;;;;5092391;27;20184;-77
2022/03/19 00:22:52;;;;;;;20.15;3.38;;;4.40;99.90;;;;;;5117426;27;20043;-79
2022/03/19 00:25:18;;;;;;;15.90;3.40;;;4.30;99.90;;;;;;5099253;27;20043;-77
2022/03/19 00:27:44;;;;;;;24.13;3.60;;;4.30;99.90;;;;;;5103149;27;20044;-78
2022/03/19 00:30:10;;;;;;;15.30;3.03;;;4.50;99.90;;;;;;5097704;27;20063;-78
2022/03/19 00:32:36;;;;;;;20.20;3.80;;;4.30;99.90;;;;;;5099123;27;20188;-80
2022/03/19 00:35:03;;;;;;;18.92;3.17;;;4.20;99.90;;;;;;5100766;27;20065;-78
2022/03/19 00:37:30;;;;;;;23.73;4.05;;;4.30;99.90;;;;;;5112778;27;20104;-81
2022/03/19 00:39:55;;;;;;;19.05;3.45;;;4.20;99.90;;;;;;5109570;27;20058;-80
2022/03/19 00:42:21;;;;;;;21.58;3.38;;;4.30;99.90;;;;;;5112243;27;20047;-80
2022/03/19 00:44:47;;;;;;;22.52;3.38;;;4.20;99.90;;;;;;5101158;28;20047;-80
2022/03/19 00:47:13;;;;;;;26.90;3.75;;;4.30;99.90;;;;;;5101911;27;20048;-80
2022/03/19 00:49:39;;;;;;;20.70;2.90;;;4.30;99.90;;;;;;5100943;27;20086;-79
2022/03/19 00:52:04;;;;;;;14.75;3.10;;;4.20;99.90;;;;;;5101726;27;20072;-81
2022/03/19 00:54:30;;;;;;;20.73;3.53;;;4.20;99.90;;;;;;5099530;27;20122;-80
2022/03/19 00:56:56;;;;;;;20.15;3.35;;;4.20;99.90;;;;;;5089494;27;20058;-80
2022/03/19 00:59:21;;;;;;;27.15;3.60;;;4.10;99.90;;;;;;5076959;28;20459;-78
2022/03/19 01:01:47;;;;;;;21.35;3.42;;;4.10;99.90;;;;;;5098251;27;20036;-78
2022/03/19 01:04:13;;;;;;;20.73;3.50;;;4.10;99.90;;;;;;5107722;27;20069;-78
2022/03/19 01:06:39;;;;;;;20.60;3.45;;;4.40;99.90;;;;;;5089954;27;20176;-78
2022/03/19 01:09:05;;;;;;;22.55;3.90;;;4.00;99.90;;;;;;5100715;28;20073;-78
2022/03/19 01:11:30;;;;;;;19.27;3.63;;;4.10;99.90;;;;;;5082052;28;20039;-79
2022/03/19 01:13:56;;;;;;;27.77;3.78;;;4.00;99.90;;;;;;5080581;27;20052;-79
2022/03/19 01:16:23;;;;;;;17.67;3.20;;;4.10;99.90;;;;;;5101970;27;20418;-77
2022/03/19 01:18:49;;;;;;;19.95;3.60;;;4.10;99.90;;;;;;5109767;27;20454;-79
2022/03/19 01:21:15;;;;;;;19.50;3.53;;;4.00;99.90;;;;;;5108490;27;20043;-79
2022/03/19 01:23:41;;;;;;;23.63;3.70;;;4.00;99.90;;;;;;5096444;28;20043;-80
2022/03/19 01:26:07;;;;;;;21.40;3.88;;;4.10;99.90;;;;;;5107082;27;20110;-79
2022/03/19 01:28:33;;;;;;;19.50;3.95;;;4.00;99.90;;;;;;5099393;27;20042;-78
2022/03/19 01:30:58;;;;;;;21.17;3.50;;;4.10;99.90;;;;;;5107023;27;20118;-78
2022/03/19 01:33:24;;;;;;;23.30;3.70;;;4.10;99.90;;;;;;5101719;27;20516;-80
2022/03/19 01:35:50;;;;;;;21.95;3.75;;;4.10;99.90;;;;;;5080460;28;20036;-80
2022/03/19 01:38:15;;;;;;;24.88;3.65;;;4.20;99.90;;;;;;5099346;28;20047;-79
2022/03/19 01:40:41;;;;;;;19.98;3.40;;;4.20;99.90;;;;;;5098812;28;20070;-80
2022/03/19 01:43:07;;;;;;;18.10;3.60;;;4.30;99.90;;;;;;5080190;28;20444;-77
2022/03/19 01:45:32;;;;;;;24.52;3.03;;;4.40;99.90;;;;;;5078654;28;20135;-79
2022/03/19 01:47:58;;;;;;;19.05;3.30;;;4.40;99.90;;;;;;5087786;28;20043;-77
2022/03/19 01:50:26;;;;;;;18.15;4.43;;;4.40;99.90;;;;;;5103373;27;20047;-81
2022/03/19 01:52:52;;;;;;;17.73;3.40;;;4.40;99.90;;;;;;5102590;27;20054;-78
2022/03/19 01:55:25;;;;;;;18.25;3.13;;;4.40;99.90;;;;;;5084544;28;20044;-80
2022/03/19 01:57:51;;;;;;;16.60;3.40;;;4.50;99.90;;;;;;5103296;27;20035;-78
2022/03/19 02:00:21;;;;;;;19.65;3.38;;;4.40;99.90;;;;;;5107931;27;20036;-78
2022/03/19 02:02:49;;;;;;;19.17;3.70;;;4.30;99.90;;;;;;5095496;28;20062;-77
2022/03/19 02:05:21;;;;;;;24.15;3.65;;;4.30;99.90;;;;;;5092923;28;20052;-78
2022/03/19 02:07:48;;;;;;;30.38;3.92;;;4.40;99.90;;;;;;5077124;28;20067;-77
2022/03/19 02:10:15;;;;;;;18.77;3.38;;;4.40;99.90;;;;;;5102731;28;20054;-79
2022/03/19 02:12:41;;;;;;;21.35;3.40;;;4.40;99.90;;;;;;5095485;27;20042;-78
2022/03/19 02:15:09;;;;;;;17.67;3.30;;;4.30;99.90;;;;;;5107520;27;20040;-78
2022/03/19 02:17:35;;;;;;;24.88;4.25;;;4.30;99.90;;;;;;5105742;27;20483;-80
2022/03/19 02:20:02;;;;;;;21.55;4.22;;;4.40;99.90;;;;;;5091007;28;20044;-79
2022/03/19 02:22:28;;;;;;;19.90;3.78;;;4.40;99.90;;;;;;5108348;27;20452;-78
2022/03/19 02:27:39;;;;;;;15.48;2.92;;;4.30;99.90;;;;;;5108472;27;20491;-76
2022/03/19 02:30:07;;;;;;;26.80;4.13;;;4.30;99.90;;;;;;5106127;27;20125;-78
2022/03/19 02:32:34;;;;;;;18.02;4.03;;;4.40;99.90;;;;;;5105387;27;21523;-81
2022/03/19 02:35:00;;;;;;;20.83;3.70;;;4.40;99.90;;;;;;5107551;27;20035;-78
2022/03/19 02:37:25;;;;;;;21.35;3.60;;;4.30;99.90;;;;;;5107071;27;20039;-80
2022/03/19 02:39:51;;;;;;;18.02;3.72;;;4.30;99.90;;;;;;5093628;28;20424;-79
2022/03/19 02:42:19;;;;;;;27.73;4.70;;;4.30;99.90;;;;;;5110665;28;20051;-78
2022/03/19 02:44:46;;;;;;;21.60;4.75;;;4.50;99.90;;;;;;5099750;28;20468;-81
2022/03/19 02:47:12;;;;;;;14.50;3.92;;;4.30;99.90;;;;;;5094608;27;20447;-78
2022/03/19 02:49:38;;;;;;;22.15;4.03;;;4.20;99.90;;;;;;5115140;27;20132;-79
2022/03/19 02:52:05;;;;;;;21.55;4.40;;;4.20;99.90;;;;;;5106348;27;20023;-79
2022/03/19 02:54:31;;;;;;;21.05;3.92;;;4.20;99.90;;;;;;5099423;28;20079;-80
2022/03/19 02:56:58;;;;;;;16.30;3.88;;;4.30;99.90;;;;;;5112450;27;20027;-77
2022/03/19 02:59:27;;;;;;;22.92;4.18;;;4.20;99.90;;;;;;5101073;28;20675;-79
2022/03/19 03:01:55;;;;;;;19.35;4.43;;;4.20;99.90;;;;;;5100845;28;20766;-78
2022/03/19 03:04:22;;;;;;;21.05;4.78;;;4.30;99.90;;;;;;5119790;27;20035;-80
2022/03/19 03:06:53;;;;;;;19.30;4.03;;;4.10;99.90;;;;;;5115951;27;21212;-78
2022/03/19 03:09:21;;;;;;;26.88;4.75;;;4.10;99.90;;;;;;5118931;27;20055;-77
2022/03/19 03:11:47;;;;;;;27.55;4.55;;;4.10;99.90;;;;;;5107002;27;20039;-77
2022/03/19 03:14:16;;;;;;;28.67;4.55;;;4.20;99.90;;;;;;5123928;27;20042;-79
2022/03/19 03:16:42;;;;;;;20.80;4.32;;;4.10;99.90;;;;;;5118134;27;20483;-79
2022/03/19 03:19:11;;;;;;;21.80;4.70;;;4.10;99.90;;;;;;5099457;28;20043;-79
2022/03/19 03:21:39;;;;;;;22.52;4.85;;;4.10;99.90;;;;;;5114338;27;20043;-79
2022/03/19 03:24:06;;;;;;;19.30;4.85;;;4.10;99.90;;;;;;5117660;27;20051;-80
2022/03/19 03:26:32;;;;;;;19.85;4.68;;;4.10;99.90;;;;;;5115750;27;20040;-79
2022/03/19 03:28:58;;;;;;;16.90;4.30;;;4.10;99.90;;;;;;5095985;27;20043;-79
2022/03/19 03:31:25;;;;;;;18.15;4.20;;;4.00;99.90;;;;;;5111836;27;20044;-79
2022/03/19 03:33:51;;;;;;;19.15;4.65;;;4.10;99.90;;;;;;5129465;27;20052;-78
2022/03/19 03:36:16;;;;;;;21.02;4.70;;;4.00;99.90;;;;;;5118647;27;20031;-80
2022/03/19 03:38:42;;;;;;;26.42;5.47;;;4.00;99.90;;;;;;5124863;27;20443;-81
2022/03/19 03:41:08;;;;;;;27.33;5.03;;;4.00;99.90;;;;;;5124542;27;20508;-79
2022/03/19 03:43:34;;;;;;;24.33;5.53;;;4.30;99.90;;;;;;5105455;28;20066;-79
2022/03/19 03:46:00;;;;;;;23.55;5.25;;;4.00;99.90;;;;;;5125852;27;20032;-76
2022/03/19 03:48:25;;;;;;;28.60;5.35;;;4.00;99.90;;;;;;5122794;27;20363;-81
2022/03/19 03:50:56;;;;;;;20.92;5.38;;;4.00;99.90;;;;;;5122754;27;20110;-79
2022/03/19 03:53:26;;;;;;;28.60;5.40;;;3.90;99.90;;;;;;5104772;27;20381;-80
2022/03/19 03:55:53;;;;;;;19.95;5.60;;;3.90;99.90;;;;;;5120104;27;20123;-79
2022/03/19 03:58:19;;;;;;;20.02;5.13;;;3.80;99.90;;;;;;5103774;27;20453;-79
2022/03/19 04:00:44;;;;;;;23.52;5.03;;;3.80;99.90;;;;;;5105378;27;20059;-78
2022/03/19 04:03:11;;;;;;;23.48;5.57;;;3.80;99.90;;;;;;5123025;27;20043;-79
2022/03/19 04:05:37;;;;;;;19.33;5.20;;;3.70;99.90;;;;;;5119759;27;20047;-80
2022/03/19 04:08:04;;;;;;;23.08;5.70;;;3.70;99.90;;;;;;5101205;27;20043;-77
2022/03/19 04:10:31;;;;;;;24.08;5.97;;;3.60;99.90;;;;;;5106353;27;20057;-81
2022/03/19 04:12:58;;;;;;;24.65;6.75;;;3.60;99.90;;;;;;5122593;27;20039;-78
2022/03/19 04:15:24;;;;;;;23.13;5.82;;;3.60;99.90;;;;;;5124739;27;20100;-80
2022/03/19 04:17:50;;;;;;;25.85;5.72;;;3.60;99.90;;;;;;5122397;27;20516;-82
2022/03/19 04:20:16;;;;;;;21.80;5.75;;;3.60;99.90;;;;;;5104548;27;20051;-80
2022/03/19 04:22:47;;;;;;;30.15;6.28;;;3.90;99.90;;;;;;5111742;27;20048;-82
2022/03/19 04:25:20;;;;;;;26.55;6.03;;;3.70;99.90;;;;;;5098866;28;20130;-79
2022/03/19 04:27:51;;;;;;;19.60;5.85;;;3.60;99.90;;;;;;5100849;28;20040;-78
2022/03/19 04:30:19;;;;;;;21.38;6.30;;;3.70;99.90;;;;;;5095968;28;20047;-80
2022/03/19 04:32:46;;;;;;;24.40;6.45;;;3.70;99.90;;;;;;5098547;28;20108;-79
2022/03/19 04:38:03;;;;;;;24.60;6.70;;;3.80;99.90;;;;;;5113063;27;20039;-80
2022/03/19 04:40:30;;;;;;;25.63;6.43;;;4.10;99.90;;;;;;5118922;27;20039;-80
2022/03/19 04:42:56;;;;;;;25.05;7.53;;;3.70;99.90;;;;;;5119109;27;20486;-79
2022/03/19 04:45:22;;;;;;;26.67;6.88;;;3.80;99.90;;;;;;5125668;27;20621;-77
2022/03/19 04:47:48;;;;;;;27.08;7.22;;;3.80;99.90;;;;;;5117242;27;20096;-80
2022/03/19 04:50:14;;;;;;;21.73;7.47;;;3.80;99.90;;;;;;5102295;27;20462;-77
2022/03/19 04:52:40;;;;;;;24.17;6.78;;;3.80;99.90;;;;;;5125127;27;20091;-77
2022/03/19 04:55:08;;;;;;;30.60;8.25;;;3.80;99.90;;;;;;5123003;27;20768;-79
2022/03/19 04:57:35;;;;;;;34.30;7.50;;;3.80;99.90;;;;;;5115408;27;20070;-80
2022/03/19 05:00:01;;;;;;;25.98;7.97;;;4.10;99.90;;;;;;5079903;28;20079;-79
2022/03/19 05:02:27;;;;;;;21.75;7.03;;;3.80;99.90;;;;;;5101777;27;20085;-77
2022/03/19 05:04:54;;;;;;;27.50;7.53;;;3.90;99.90;;;;;;5126127;27;20058;-81
2022/03/19 05:07:21;;;;;;;28.75;7.82;;;3.80;99.90;;;;;;5105307;27;20046;-79
2022/03/19 05:12:34;;;;;;;24.02;7.50;;;3.90;99.90;;;;;;5122603;27;20038;-81
2022/03/19 05:15:00;;;;;;;24.52;7.40;;;3.90;99.90;;;;;;5125659;27;20024;-78
2022/03/19 05:17:26;;;;;;;25.05;8.32;;;4.10;99.90;;;;;;5121625;27;20050;-79
2022/03/19 05:19:52;;;;;;;25.40;7.20;;;3.90;99.90;;;;;;5121262;27;20081;-81
2022/03/19 05:22:18;;;;;;;30.88;7.43;;;3.90;99.90;;;;;;5100451;27;20036;-78
2022/03/19 05:24:44;;;;;;;26.83;7.38;;;3.90;99.90;;;;;;5092993;28;20047;-80
2022/03/19 05:27:11;;;;;;;24.98;7.13;;;3.90;99.90;;;;;;5098334;28;20039;-80
2022/03/19 05:29:37;;;;;;;20.00;6.80;;;3.90;99.90;;;;;;5104692;28;20410;-79
2022/03/19 05:32:04;;;;;;;27.38;8.35;;;3.90;99.90;;;;;;5098677;28;20055;-78
2022/03/19 05:34:29;;;;;;;24.50;7.07;;;4.00;99.90;;;;;;5099397;28;20031;-78
2022/03/19 05:36:59;;;;;;;21.52;7.15;;;4.00;99.90;;;;;;5082327;28;20051;-78
2022/03/19 05:39:26;;;;;;;28.27;7.50;;;3.90;99.90;;;;;;5099456;28;20369;-77
2022/03/19 05:41:52;;;;;;;23.08;6.82;;;3.90;99.90;;;;;;5099213;28;20047;-78
2022/03/19 05:44:18;;;;;;;29.23;7.55;;;3.90;99.90;;;;;;5098035;28;20031;-77
2022/03/19 05:46:44;;;;;;;22.60;7.72;;;4.00;99.90;;;;;;5093417;28;20559;-77
2022/03/19 05:49:12;;;;;;;18.65;7.20;;;4.00;99.90;;;;;;5120921;27;20044;-79
2022/03/19 05:51:37;;;;;;;27.13;8.02;;;4.00;99.90;;;;;;5102534;27;20047;-81
2022/03/19 05:54:03;;;;;;;25.70;8.30;;;4.00;99.90;;;;;;5117877;27;20066;-83
2022/03/19 05:56:30;;;;;;;32.20;9.38;;;3.90;99.90;;;;;;5117306;27;20122;-79
2022/03/19 05:58:55;;;;;;;25.90;9.35;;;3.90;99.90;;;;;;5123122;27;20077;-85
2022/03/19 06:01:26;;;;;;;25.15;9.10;;;4.00;99.90;;;;;;5099661;28;20067;-79
2022/03/19 06:03:55;;;;;;;27.65;8.88;;;4.00;99.90;;;;;;5108099;28;20100;-80
2022/03/19 06:06:21;;;;;;;28.90;9.15;;;4.00;99.90;;;;;;5100024;28;20059;-83
2022/03/19 06:08:47;;;;;;;29.75;9.13;;;4.00;99.90;;;;;;5098920;28;20043;-79
2022/03/19 06:11:13;;;;;;;21.40;8.95;;;4.00;99.90;;;;;;5084939;28;20043;-82
2022/03/19 06:13:39;;;;;;;27.80;8.73;;;4.10;99.90;;;;;;5098165;28;20071;-78
2022/03/19 06:16:05;;;;;;;25.45;9.52;;;4.10;99.90;;;;;;5095075;28;20070;-79
2022/03/19 06:18:30;;;;;;;27.42;9.32;;;4.20;99.90;;;;;;5091736;28;20405;-79
2022/03/19 06:20:56;;;;;;;32.38;9.23;;;4.20;99.90;;;;;;5099978;28;20036;-79
2022/03/19 06:23:23;;;;;;;20.55;8.82;;;4.20;99.90;;;;;;5101193;28;20130;-79
2022/03/19 06:25:49;;;;;;;25.77;9.70;;;4.30;99.90;;;;;;5086039;28;20063;-81
2022/03/19 06:28:16;;;;;;;28.98;10.30;;;4.30;99.90;;;;;;5106962;28;20043;-82
2022/03/19 06:30:41;;;;;;;29.27;9.90;;;4.30;99.90;;;;;;5100513;28;20119;-80
2022/03/19 06:33:08;;;;;;;31.35;8.88;;;4.30;99.90;;;;;;5086189;28;20122;-79
2022/03/19 06:38:21;;;;;;;18.65;8.35;;;4.30;99.90;;;;;;5104151;28;20043;-80
2022/03/19 06:40:47;;;;;;;27.17;9.23;;;4.40;99.90;;;;;;5083098;28;20482;-80
2022/03/19 06:43:12;;;;;;;23.27;8.02;;;4.40;99.90;;;;;;5087048;28;20161;-79
2022/03/19 06:45:38;;;;;;;26.88;8.35;;;4.50;99.90;;;;;;5111491;28;20031;-83
2022/03/19 06:48:05;;;;;;;27.55;8.73;;;4.50;99.90;;;;;;5090479;28;20039;-80
2022/03/19 06:50:31;;;;;;;25.65;8.40;;;4.50;99.90;;;;;;5090118;28;20047;-80
2022/03/19 06:52:57;;;;;;;20.02;7.53;;;4.60;99.90;;;;;;5106613;28;20483;-82
2022/03/19 06:55:22;;;;;;;22.98;7.22;;;5.30;99.90;;;;;;5091462;28;20192;-79
2022/03/19 06:57:48;;;;;;;27.42;7.22;;;4.60;99.90;;;;;;5104654;28;20134;-80
2022/03/19 07:00:14;;;;;;;21.40;7.05;;;4.70;99.90;;;;;;5111157;28;20048;-82
2022/03/19 07:02:51;;;;;;;27.95;7.03;;;4.80;99.90;;;;;;5113282;28;20323;-80
2022/03/19 07:05:26;;;;;;;19.88;5.72;;;4.80;99.90;;;;;;5113915;27;20044;-83
2022/03/19 07:07:53;;;;;;;18.33;6.65;;;4.90;99.90;;;;;;5095036;28;20112;-84
2022/03/19 07:10:19;;;;;;;24.23;6.97;;;5.00;99.90;;;;;;5108623;27;20141;-83
2022/03/19 07:12:47;;;;;;;17.58;5.13;;;5.10;99.90;;;;;;5111088;27;20036;-80
2022/03/19 07:15:18;;;;;;;14.23;4.85;;;5.50;99.90;;;;;;5109927;27;20502;-81
2022/03/19 07:17:44;;;;;;;17.35;5.50;;;5.20;99.90;;;;;;5100963;28;20489;-81
2022/03/19 07:20:11;;;;;;;17.48;5.32;;;5.30;99.90;;;;;;5118579;27;20071;-80
2022/03/19 07:22:51;;;;;;;24.70;6.25;;;5.30;99.90;;;;;;5117476;27;20040;-81
2022/03/19 07:25:18;;;;;;;11.40;4.13;;;5.80;99.90;;;;;;5108913;27;20394;-82
2022/03/19 07:27:45;;;;;;;11.55;4.43;;;5.60;99.90;;;;;;5121124;27;20044;-79
2022/03/19 07:30:11;;;;;;;20.02;5.72;;;5.70;99.90;;;;;;5113305;27;20032;-81
2022/03/19 07:32:37;;;;;;;27.85;5.57;;;5.60;99.90;;;;;;5116466;27;20039;-79
2022/03/19 07:35:05;;;;;;;18.85;5.28;;;5.70;99.90;;;;;;5104453;28;20574;-83
2022/03/19 07:37:30;;;;;;;20.35;5.78;;;5.80;99.90;;;;;;5110777;27;20131;-86
2022/03/19 07:39:56;;;;;;;19.10;5.55;;;5.80;99.90;;;;;;5094225;28;20154;-82
2022/03/19 07:42:22;;;;;;;26.40;5.50;;;5.90;99.90;;;;;;5110399;27;20142;-82
2022/03/19 07:44:49;;;;;;;23.33;6.13;;;6.00;99.90;;;;;;5091972;28;20407;-82
2022/03/19 07:47:15;;;;;;;17.50;5.72;;;6.00;99.90;;;;;;5114370;27;20392;-81
2022/03/19 07:49:41;;;;;;;16.85;5.78;;;6.00;99.90;;;;;;5110832;27;20063;-78
2022/03/19 07:52:08;;;;;;;21.92;5.72;;;6.00;99.90;;;;;;5112922;27;20459;-81
2022/03/19 07:54:36;;;;;;;16.88;4.85;;;6.10;99.90;;;;;;5106899;27;20031;-83
2022/03/19 07:57:07;;;;;;;21.60;5.47;;;6.10;99.90;;;;;;5109871;27;20123;-80
2022/03/19 07:59:33;;;;;;;15.35;5.15;;;6.20;99.90;;;;;;5112421;27;20036;-78
2022/03/19 08:01:59;;;;;;;17.50;5.25;;;6.20;99.90;;;;;;5091920;28;20043;-81
2022/03/19 08:04:25;;;;;;;16.67;4.78;;;6.30;99.90;;;;;;5085603;28;20089;-83
2022/03/19 08:06:55;;;;;;;19.67;5.07;;;7.00;99.90;;;;;;5109894;27;20039;-81
2022/03/19 08:09:23;;;;;;;24.27;6.15;;;6.50;99.90;;;;;;5119804;27;20043;-81
2022/03/19 08:11:49;;;;;;;16.85;5.03;;;6.50;99.90;;;;;;5114199;28;20396;-81
2022/03/19 08:14:15;;;;;;;20.80;5.43;;;6.50;99.90;;;;;;5112068;28;20502;-80
2022/03/19 08:16:42;;;;;;;17.83;5.03;;;6.60;99.90;;;;;;5078432;28;20035;-78
2022/03/19 08:19:11;;;;;;;21.40;5.13;;;6.60;99.90;;;;;;5107138;28;20032;-81
2022/03/19 08:21:38;;;;;;;25.20;5.90;;;6.90;99.90;;;;;;5088773;28;20035;-81
2022/03/19 08:24:07;;;;;;;18.90;4.63;;;6.70;99.90;;;;;;5108252;27;20413;-80
2022/03/19 08:26:34;;;;;;;17.77;4.30;;;6.80;99.90;;;;;;5108227;28;20125;-86
2022/03/19 08:29:00;;;;;;;18.58;5.50;;;6.90;99.90;;;;;;5101069;28;20062;-80
2022/03/19 08:31:25;;;;;;;21.08;5.43;;;6.90;99.90;;;;;;5105823;27;20043;-78
2022/03/19 08:33:52;;;;;;;17.73;5.13;;;6.90;99.90;;;;;;5108213;28;20116;-83
2022/03/19 08:36:18;;;;;;;17.25;4.63;;;6.90;99.90;;;;;;5092778;28;20093;-84
2022/03/19 08:41:28;;;;;;;14.77;4.30;;;7.10;99.90;;;;;;5104630;28;20039;-80
2022/03/19 08:43:54;;;;;;;16.92;4.60;;;7.20;99.90;;;;;;5091493;28;20055;-82
2022/03/19 08:46:19;;;;;;;17.63;4.30;;;7.20;99.90;;;;;;5107350;28;20056;-80
2022/03/19 08:48:45;;;;;;;18.42;4.32;;;7.30;99.90;;;;;;5107768;28;20059;-84
2022/03/19 08:53:55;;;;;;;15.32;4.60;;;7.20;99.90;;;;;;5108543;28;20093;-82
2022/03/19 08:56:21;;;;;;;14.52;4.03;;;7.40;99.90;;;;;;5106580;28;20036;-83
2022/03/19 08:58:47;;;;;;;17.90;4.07;;;7.90;99.90;;;;;;5098559;28;20031;-84
2022/03/19 09:01:13;;;;;;;17.33;4.25;;;7.60;99.90;;;;;;5092699;28;20450;-80
2022/03/19 09:03:39;;;;;;;16.42;3.90;;;7.80;99.90;;;;;;5110676;27;20138;-81
2022/03/19 09:06:05;;;;;;;10.80;3.63;;;7.80;99.90;;;;;;5081722;27;20129;-84
2022/03/19 09:08:30;;;;;;;15.02;3.88;;;7.70;99.90;;;;;;5084548;28;20443;-80
2022/03/19 09:10:59;;;;;;;21.90;3.97;;;8.00;99.90;;;;;;5077060;28;20048;-83
2022/03/19 09:13:26;;;;;;;11.40;3.33;;;7.80;99.90;;;;;;5093876;28;20054;-81
2022/03/19 09:15:52;;;;;;;12.65;3.45;;;7.90;99.90;;;;;;5076229;28;20074;-79
2022/03/19 09:18:20;;;;;;;20.15;5.05;;;7.90;99.90;;;;;;5093687;28;20142;-83
2022/03/19 09:20:45;;;;;;;20.27;4.30;;;8.10;99.90;;;;;;5076804;28;20071;-82
2022/03/19 09:23:11;;;;;;;15.10;2.90;;;8.20;99.90;;;;;;5094644;28;20070;-83
2022/03/19 09:26:14;;;;;;;15.68;3.85;;;8.10;99.90;;;;;;5094633;28;20397;-83
2022/03/19 09:28:40;;;;;;;13.35;3.33;;;8.20;99.90;;;;;;5064552;28;20036;-80
2022/03/19 09:31:06;;;;;;;14.45;3.05;;;8.30;99.90;;;;;;5075755;28;20040;-84
2022/03/19 09:33:32;;;;;;;20.52;3.30;;;8.30;99.90;;;;;;5071256;27;20035;-84
2022/03/19 09:36:00;;;;;;;14.57;3.70;;;8.60;99.90;;;;;;5115070;27;20031;-82
2022/03/19 09:38:29;;;;;;;12.43;3.47;;;8.40;99.90;;;;;;5097667;27;20088;-81
2022/03/19 09:40:58;;;;;;;14.98;3.55;;;8.50;99.90;;;;;;5109693;27;20039;-80
2022/03/19 09:43:25;;;;;;;12.45;2.90;;;8.70;99.90;;;;;;5095581;27;20424;-84
2022/03/19 09:45:52;;;;;;;12.00;2.92;;;8.50;99.90;;;;;;5077751;27;20077;-83
2022/03/19 09:48:19;;;;;;;14.90;3.33;;;8.90;99.90;;;;;;5108223;27;20376;-80
2022/03/19 09:50:45;;;;;;;11.00;3.13;;;8.70;99.90;;;;;;5094438;27;20054;-80
2022/03/19 09:53:11;;;;;;;15.05;3.25;;;8.80;99.90;;;;;;5111647;27;20038;-78
2022/03/19 09:55:38;;;;;;;11.20;3.28;;;9.30;99.90;;;;;;5109379;27;20217;-78
2022/03/19 09:58:05;;;;;;;16.58;3.90;;;8.90;99.90;;;;;;5110624;27;20039;-81
2022/03/19 10:00:31;;;;;;;20.58;4.00;;;9.20;99.90;;;;;;5123983;27;20568;-83
2022/03/19 10:03:02;;;;;;;17.83;4.03;;;9.10;99.90;;;;;;5143353;27;20052;-80
2022/03/19 10:08:38;;;;;;;14.70;3.67;;;9.40;99.90;;;;;;5085913;28;20049;-85
2022/03/19 10:11:16;;;;;;;10.32;2.40;;;9.60;99.90;;;;;;5097294;27;20537;-83
2022/03/19 10:13:45;;;;;;;14.90;2.70;;;9.70;99.90;;;;;;5092581;27;20043;-85
2022/03/19 10:16:33;;;;;;;13.15;3.17;;;9.80;99.90;;;;;;5091638;28;20057;-85
2022/03/19 10:19:01;;;;;;;13.55;3.22;;;9.90;99.90;;;;;;5110841;27;20082;-83
2022/03/19 10:21:28;;;;;;;15.25;3.35;;;10.50;99.90;;;;;;5104688;28;20154;-83
2022/03/19 10:23:56;;;;;;;18.40;3.50;;;10.60;99.90;;;;;;5090361;28;20044;-80
2022/03/19 10:26:30;;;;;;;14.50;3.50;;;10.00;99.90;;;;;;5095227;28;20452;-80
2022/03/19 10:29:01;;;;;;;14.40;3.20;;;10.20;99.90;;;;;;5110282;28;20125;-79
2022/03/19 10:31:46;;;;;;;22.00;4.45;;;10.40;99.90;;;;;;5114353;27;20047;-79
2022/03/19 10:34:12;;;;;;;14.15;4.18;;;10.40;99.90;;;;;;5115311;27;20031;-77
2022/03/19 10:36:43;;;;;;;16.27;4.03;;;10.50;99.90;;;;;;5110320;27;20024;-81
2022/03/19 10:39:12;;;;;;;16.30;3.90;;;10.80;99.90;;;;;;5133681;27;20046;-79
2022/03/19 10:41:38;;;;;;;15.18;4.00;;;10.90;99.90;;;;;;5097589;27;20594;-81
2022/03/19 10:44:12;;;;;;;13.40;3.25;;;11.00;99.90;;;;;;5113791;27;20068;-81
2022/03/19 10:46:42;;;;;;;11.23;3.10;;;11.30;99.90;;;;;;5096676;27;20501;-83
2022/03/19 10:49:12;;;;;;;9.85;2.60;;;11.40;99.90;;;;;;5112209;27;20393;-79
2022/03/19 10:51:40;;;;;;;12.30;2.97;;;11.50;99.90;;;;;;5117598;27;20059;-79
2022/03/19 10:54:07;;;;;;;9.98;2.60;;;11.50;99.90;;;;;;5101022;27;20043;-80
2022/03/19 10:56:33;;;;;;;9.63;2.65;;;11.40;99.90;;;;;;5097887;27;20035;-80
2022/03/19 10:58:59;;;;;;;11.60;2.45;;;11.60;99.90;;;;;;5143127;27;20491;-81
2022/03/19 11:01:27;;;;;;;9.75;2.45;;;11.80;99.90;;;;;;5133535;27;20126;-82
2022/03/19 11:03:54;;;;;;;10.88;3.00;;;12.10;99.90;;;;;;5094854;27;20146;-81
2022/03/19 11:06:21;;;;;;;14.00;3.30;;;12.00;99.90;;;;;;5113090;27;20056;-86
2022/03/19 11:08:48;;;;;;;8.98;2.35;;;12.20;99.90;;;;;;5090583;27;20046;-85
2022/03/19 11:11:18;;;;;;;15.20;2.67;;;12.00;99.90;;;;;;5103672;27;20078;-82
2022/03/19 11:13:49;;;;;;;12.52;3.03;;;12.10;99.90;;;;;;5116663;27;20055;-83
2022/03/19 11:16:17;;;;;;;11.02;2.92;;;12.40;99.90;;;;;;5104469;27;20104;-84
2022/03/19 11:18:44;;;;;;;9.93;2.67;;;12.50;99.90;;;;;;5119602;27;20042;-83
2022/03/19 11:21:10;;;;;;;7.35;2.40;;;12.60;99.90;;;;;;5087716;27;20050;-84
2022/03/19 11:24:22;;;;;;;10.05;2.58;;;12.60;99.20;;;;;;5086527;27;20466;-84
2022/03/19 11:26:49;;;;;;;8.10;2.28;;;12.70;97.80;;;;;;4992719;28;20049;-85
2022/03/19 11:29:16;;;;;;;9.38;2.17;;;12.80;99.50;;;;;;4996331;28;20034;-83
2022/03/19 11:31:43;;;;;;;8.10;2.22;;;13.30;99.60;;;;;;5038206;28;20401;-83
2022/03/19 11:34:16;;;;;;;7.82;2.13;;;12.80;99.70;;;;;;5020904;28;20370;-81
2022/03/19 11:37:02;;;;;;;8.27;2.15;;;13.10;98.30;;;;;;5029718;28;20052;-85
2022/03/19 11:39:28;;;;;;;5.38;1.70;;;13.20;98.20;;;;;;5018533;28;20477;-79
2022/03/19 11:41:54;;;;;;;7.28;1.60;;;13.40;94.30;;;;;;4993529;28;20060;-79
2022/03/19 11:44:25;;;;;;;5.90;1.70;;;13.30;95.10;;;;;;5014610;28;20044;-83
2022/03/19 11:47:01;;;;;;;6.55;2.00;;;13.40;93.70;;;;;;5013489;28;20127;-81
2022/03/19 11:49:55;;;;;;;5.65;1.80;;;13.70;94.00;;;;;;4992519;28;20305;-84
2022/03/19 11:52:26;;;;;;;8.73;1.67;;;13.80;92.90;;;;;;5012624;28;20041;-79
2022/03/19 11:55:04;;;;;;;8.27;1.77;;;13.70;92.40;;;;;;5009396;28;20038;-82
2022/03/19 11:57:50;;;;;;;6.70;1.95;;;13.90;92.50;;;;;;4991752;28;20343;-81
2022/03/19 12:00:18;;;;;;;6.20;2.00;;;13.60;93.40;;;;;;5001653;28;20060;-84
2022/03/19 12:03:05;;;;;;;7.03;2.08;;;13.80;95.10;;;;;;5035199;27;20046;-80
2022/03/19 12:05:32;;;;;;;7.28;1.55;;;13.80;94.30;;;;;;5118003;27;20197;-81
2022/03/19 12:08:06;;;;;;;7.95;1.60;;;13.90;94.30;;;;;;5107936;27;20055;-80
2022/03/19 12:11:02;;;;;;;6.50;1.65;;;13.70;92.10;;;;;;5094565;27;20039;-80
2022/03/19 12:13:28;;;;;;;4.05;1.50;;;13.70;92.00;;;;;;5026678;28;20045;-81
2022/03/19 12:15:59;;;;;;;5.43;1.42;;;13.60;91.30;;;;;;5025298;28;20040;-80
2022/03/19 12:18:33;;;;;;;4.20;1.48;;;13.70;92.10;;;;;;5014320;28;20404;-80
2022/03/19 12:21:11;;;;;;;6.97;1.65;;;14.10;93.10;;;;;;5009368;28;20049;-80
2022/03/19 12:23:59;;;;;;;7.60;1.60;;;14.40;91.50;;;;;;5030025;28;20055;-84
2022/03/19 12:26:35;;;;;;;6.20;1.42;;;14.60;90.80;;;;;;4976839;28;20434;-80
2022/03/19 12:29:03;;;;;;;3.90;1.40;;;14.70;91.70;;;;;;4972296;28;21957;-80
2022/03/19 12:31:32;;;;;;;4.35;1.65;;;15.00;90.50;;;;;;4921439;28;20046;-82
2022/03/19 12:33:58;;;;;;;5.25;1.50;;;14.80;90.10;;;;;;4973481;28;20038;-80
2022/03/19 12:36:23;;;;;;;4.05;1.50;;;14.80;89.60;;;;;;4973368;28;20050;-81
2022/03/19 12:38:50;;;;;;;3.63;1.33;;;14.60;91.30;;;;;;4990441;28;20054;-80
2022/03/19 12:41:39;;;;;;;5.53;1.50;;;14.90;90.50;;;;;;4973125;28;20149;-88
2022/03/19 12:44:35;;;;;;;6.80;1.38;;;14.90;89.80;;;;;;4971045;28;20057;-80
2022/03/19 12:47:13;;;;;;;3.05;1.10;;;15.30;91.60;;;;;;4971858;28;20050;-82
2022/03/19 12:49:54;;;;;;;5.22;1.48;;;15.40;83.30;;;;;;4984006;28;20048;-84
2022/03/19 12:52:22;;;;;;;4.38;1.45;;;15.50;82.50;;;;;;5012866;28;20041;-85
2022/03/19 12:54:51;;;;;;;4.55;1.73;;;15.60;82.80;;;;;;5031155;28;20056;-85
2022/03/19 12:57:25;;;;;;;6.07;1.50;;;15.80;84.10;;;;;;5033481;28;20389;-85
2022/03/19 12:59:56;;;;;;;4.00;1.67;;;15.60;81.00;;;;;;5032024;28;20040;-80
2022/03/19 13:02:26;;;;;;;5.65;1.52;;;16.00;84.10;;;;;;5015508;27;20070;-81
2022/03/19 13:04:55;;;;;;;5.78;1.40;;;16.10;82.50;;;;;;5083489;28;20035;-85
2022/03/19 13:07:23;;;;;;;4.57;1.70;;;15.50;80.40;;;;;;5094709;27;20428;-83
2022/03/19 13:09:49;;;;;;;6.50;1.55;;;15.90;78.50;;;;;;5093916;27;20509;-86